Time;durP1;ratioP1;P1;durP2;ratioP2;P2;SDS_P1;SDS_P2;PMS_P1;PMS_P2;Temp;Humidity;BMP_temperature;BMP_pressure;BME280_temperature;BME280_humidity;BME280_pressure;Samples;Min_cycle;Max_cycle;Signal;HPM_P1;HPM_P2
2023/03/23 00:02:26;;;;;;;20.70;18.50;;;;;;;9.13;100.00;100022.72;5001178;28;20193;-46
2023/03/23 00:04:53;;;;;;;19.90;17.80;;;;;;;9.17;100.00;100016.31;4997769;28;20209;-43
2023/03/23 00:07:27;;;;;;;20.27;17.98;;;;;;;9.19;100.00;100021.59;4986155;28;20713;-48
2023/03/23 00:09:54;;;;;;;20.02;18.08;;;;;;;9.19;100.00;100017.13;5000712;28;20219;-45
2023/03/23 00:12:21;;;;;;;22.23;18.60;;;;;;;9.17;100.00;100002.94;4999009;28;20182;-45
2023/03/23 00:14:47;;;;;;;20.33;18.17;;;;;;;9.21;100.00;100009.91;4998294;28;20205;-44
2023/03/23 00:17:14;;;;;;;22.00;19.60;;;;;;;9.16;100.00;99997.66;4994782;28;20208;-48
2023/03/23 00:19:45;;;;;;;20.98;18.67;;;;;;;9.19;100.00;100000.22;4999393;28;20188;-47
2023/03/23 00:22:16;;;;;;;22.00;19.75;;;;;;;9.23;100.00;99992.00;4998357;28;20224;-43
2023/03/23 00:24:43;;;;;;;21.17;18.98;;;;;;;9.22;100.00;99986.69;4995176;28;20209;-45
2023/03/23 00:27:12;;;;;;;25.27;20.23;;;;;;;9.23;100.00;99989.31;4997734;28;20656;-41
2023/03/23 00:29:40;;;;;;;22.17;19.95;;;;;;;9.27;100.00;99995.38;5001435;28;20275;-44
2023/03/23 00:32:06;;;;;;;22.63;20.13;;;;;;;9.26;100.00;100004.34;4980493;28;20582;-45
2023/03/23 00:34:34;;;;;;;22.30;19.95;;;;;;;9.28;100.00;100014.00;4976069;28;20201;-45
2023/03/23 00:37:00;;;;;;;23.20;20.58;;;;;;;9.32;100.00;100008.53;4998907;28;20274;-48
2023/03/23 00:39:27;;;;;;;24.35;21.85;;;;;;;9.30;100.00;100018.44;4999746;28;20291;-44
2023/03/23 00:42:00;;;;;;;23.15;20.73;;;;;;;9.28;100.00;100011.34;5001497;28;20256;-42
2023/03/23 00:44:28;;;;;;;23.08;20.88;;;;;;;9.30;100.00;100008.59;4995802;28;21070;-43
2023/03/23 00:46:55;;;;;;;22.13;19.83;;;;;;;9.26;100.00;100005.19;4996343;28;20216;-43
2023/03/23 00:49:24;;;;;;;25.15;20.77;;;;;;;9.29;100.00;100006.84;5001964;28;20182;-44
2023/03/23 00:51:55;;;;;;;24.85;21.40;;;;;;;9.30;100.00;100013.09;5001915;28;20231;-41
2023/03/23 00:54:22;;;;;;;21.75;19.45;;;;;;;9.30;100.00;100007.75;5002593;28;20301;-46
2023/03/23 00:56:49;;;;;;;22.63;20.25;;;;;;;9.30;100.00;99999.72;4997193;28;20188;-47
2023/03/23 00:59:14;;;;;;;26.75;20.02;;;;;;;9.26;100.00;100002.53;4998990;28;20272;-46
2023/03/23 01:01:40;;;;;;;25.38;20.98;;;;;;;9.26;100.00;100002.53;4978732;28;20189;-45
2023/03/23 01:04:06;;;;;;;23.40;20.58;;;;;;;9.27;100.00;100008.72;4996800;28;20706;-44
2023/03/23 01:06:38;;;;;;;22.70;20.35;;;;;;;9.18;100.00;100012.72;4999988;28;20184;-44
2023/03/23 01:09:05;;;;;;;21.45;19.15;;;;;;;9.19;100.00;100002.91;4991490;28;20185;-44
2023/03/23 01:11:31;;;;;;;21.35;19.15;;;;;;;9.10;100.00;100000.66;4982199;28;20204;-46
2023/03/23 01:13:57;;;;;;;23.00;19.95;;;;;;;9.10;100.00;99993.50;4981800;28;20176;-44
2023/03/23 01:16:24;;;;;;;22.33;19.98;;;;;;;9.00;100.00;99990.34;5001616;28;20206;-44
2023/03/23 01:18:49;;;;;;;21.40;19.10;;;;;;;9.00;100.00;99982.34;4990556;28;20220;-44
2023/03/23 01:21:17;;;;;;;21.75;18.98;;;;;;;8.92;100.00;99968.47;4998227;28;20994;-46
2023/03/23 01:23:43;;;;;;;23.70;20.75;;;;;;;8.90;100.00;99964.13;4996280;28;20212;-46
2023/03/23 01:26:21;;;;;;;22.95;19.35;;;;;;;8.84;100.00;99955.44;4998399;28;20692;-45
2023/03/23 01:28:47;;;;;;;20.80;18.50;;;;;;;8.83;100.00;99951.06;4998718;28;20196;-44
2023/03/23 01:31:19;;;;;;;21.67;19.45;;;;;;;8.79;100.00;99946.78;4998412;28;20238;-46
2023/03/23 01:33:45;;;;;;;21.40;19.13;;;;;;;8.76;100.00;99936.22;4999744;28;20667;-43
2023/03/23 01:36:14;;;;;;;21.45;18.30;;;;;;;8.78;100.00;99936.16;4961111;28;20634;-45
2023/03/23 01:38:43;;;;;;;23.80;19.00;;;;;;;8.74;100.00;99940.78;4980230;28;20628;-45
2023/03/23 01:41:10;;;;;;;20.67;18.13;;;;;;;8.70;100.00;99938.31;4999910;28;20182;-45
2023/03/23 01:43:53;;;;;;;18.92;16.63;;;;;;;8.68;100.00;99929.50;4980969;28;20240;-44
2023/03/23 01:46:18;;;;;;;18.73;14.60;;;;;;;8.64;100.00;99931.47;4983174;28;20260;-44
2023/03/23 01:48:45;;;;;;;18.15;13.95;;;;;;;8.59;100.00;99929.00;4978416;28;20339;-44
2023/03/23 01:51:16;;;;;;;17.42;12.30;;;;;;;8.57;100.00;99936.22;4994968;28;20260;-46
2023/03/23 01:53:48;;;;;;;15.30;11.75;;;;;;;8.56;100.00;99930.94;4976115;28;20272;-45
2023/03/23 01:56:20;;;;;;;13.10;10.38;;;;;;;8.54;100.00;99917.63;4996924;28;20224;-45
2023/03/23 01:58:46;;;;;;;11.13;9.55;;;;;;;8.52;100.00;99919.50;4989288;28;20762;-45
2023/03/23 02:01:14;;;;;;;11.50;9.10;;;;;;;8.52;100.00;99930.19;4980894;28;20267;-45
2023/03/23 02:03:44;;;;;;;10.05;8.85;;;;;;;8.52;100.00;99922.19;4993332;28;20197;-44
2023/03/23 02:06:11;;;;;;;9.13;7.88;;;;;;;8.51;100.00;99914.25;4983575;28;20629;-44
2023/03/23 02:08:57;;;;;;;10.05;7.90;;;;;;;8.52;100.00;99903.47;4985868;28;20181;-45
2023/03/23 02:11:23;;;;;;;10.35;8.00;;;;;;;8.50;100.00;99899.16;4990625;28;20203;-44
2023/03/23 02:13:50;;;;;;;8.82;7.90;;;;;;;8.51;100.00;99903.56;4990896;28;20192;-47
2023/03/23 02:16:34;;;;;;;8.70;7.53;;;;;;;8.52;100.00;99906.16;4994304;28;20335;-44
2023/03/23 02:19:13;;;;;;;8.98;7.65;;;;;;;8.56;100.00;99898.88;5002263;28;20185;-47
2023/03/23 02:21:54;;;;;;;8.80;7.63;;;;;;;8.57;100.00;99916.63;4999698;28;20196;-47
2023/03/23 02:24:46;;;;;;;9.23;7.70;;;;;;;8.58;100.00;99913.91;4988704;28;20680;-45
2023/03/23 02:29:46;;;;;;;10.77;9.77;;;;;;;8.56;100.00;99915.75;4969124;28;20766;-46
2023/03/23 02:32:26;;;;;;;10.60;9.50;;;;;;;8.57;100.00;99903.28;4979889;28;20196;-46
2023/03/23 02:35:32;;;;;;;11.85;10.10;;;;;;;8.58;100.00;99903.22;4983626;28;20201;-46
2023/03/23 02:38:21;;;;;;;12.38;10.38;;;;;;;8.57;100.00;99905.94;4978999;28;20693;-46
2023/03/23 02:40:50;;;;;;;12.07;10.48;;;;;;;8.56;100.00;99901.56;4981127;28;20198;-46
2023/03/23 02:43:23;;;;;;;10.93;9.80;;;;;;;8.53;100.00;99907.91;4963025;28;20209;-45
2023/03/23 02:45:52;;;;;;;12.73;11.30;;;;;;;8.50;100.00;99888.47;4965051;28;20700;-46
2023/03/23 02:48:22;;;;;;;13.52;11.27;;;;;;;8.54;100.00;99888.28;4977992;28;20190;-46
2023/03/23 02:50:51;;;;;;;13.18;11.77;;;;;;;8.53;100.00;99894.56;4963793;28;20558;-47
2023/03/23 02:53:22;;;;;;;13.57;12.18;;;;;;;8.53;100.00;99904.38;4982973;28;20169;-47
2023/03/23 02:55:52;;;;;;;13.95;12.07;;;;;;;8.52;100.00;99906.16;4967047;28;20567;-46
2023/03/23 02:58:20;;;;;;;15.32;12.70;;;;;;;8.51;100.00;99895.56;4964005;28;20186;-48
2023/03/23 03:00:49;;;;;;;13.60;12.00;;;;;;;8.52;100.00;99899.97;4971217;28;20177;-46
2023/03/23 03:03:19;;;;;;;14.15;12.10;;;;;;;8.50;100.00;99893.81;4978467;28;20210;-46
2023/03/23 03:06:06;;;;;;;13.45;11.73;;;;;;;8.53;100.00;99886.56;4990372;28;20645;-45
2023/03/23 03:08:46;;;;;;;13.10;11.73;;;;;;;8.48;100.00;99882.34;4975839;28;20519;-45
2023/03/23 03:11:15;;;;;;;16.83;11.93;;;;;;;8.44;100.00;99870.94;4981788;28;20683;-45
2023/03/23 03:13:51;;;;;;;14.27;12.15;;;;;;;8.40;100.00;99894.22;4980530;28;20190;-46
2023/03/23 03:16:35;;;;;;;13.40;11.30;;;;;;;8.44;100.00;99898.50;4979341;28;20207;-45
2023/03/23 03:19:12;;;;;;;12.27;11.00;;;;;;;8.39;100.00;99884.44;4985008;28;20309;-46
2023/03/23 03:21:43;;;;;;;12.52;11.23;;;;;;;8.34;100.00;99837.56;4950427;28;20688;-47
2023/03/23 03:24:11;;;;;;;11.13;9.68;;;;;;;8.31;100.00;99851.03;4958532;28;20214;-45
2023/03/23 03:26:47;;;;;;;12.63;9.80;;;;;;;8.29;100.00;99853.78;4982416;28;20181;-46
2023/03/23 03:29:41;;;;;;;9.95;8.45;;;;;;;8.31;100.00;99854.59;4980442;28;20199;-46
2023/03/23 03:32:11;;;;;;;9.63;8.60;;;;;;;8.42;100.00;99876.34;4980740;28;20178;-45
2023/03/23 03:34:37;;;;;;;10.63;8.45;;;;;;;8.41;100.00;99895.94;4961728;28;20297;-46
2023/03/23 03:37:05;;;;;;;11.07;8.68;;;;;;;8.45;100.00;99923.38;4959522;28;20186;-46
2023/03/23 03:39:36;;;;;;;9.57;8.27;;;;;;;8.33;100.00;99908.75;4980377;28;20186;-47
2023/03/23 03:42:04;;;;;;;10.40;9.10;;;;;;;8.31;100.00;99894.63;4980081;28;20296;-45
2023/03/23 03:44:30;;;;;;;9.63;8.63;;;;;;;8.27;100.00;99903.69;4961074;28;20209;-46
2023/03/23 03:46:56;;;;;;;11.45;8.75;;;;;;;8.25;100.00;99897.53;4980410;28;20189;-45
2023/03/23 03:49:22;;;;;;;11.82;8.40;;;;;;;8.17;100.00;99907.69;4967918;28;20223;-46
2023/03/23 03:51:48;;;;;;;9.10;7.32;;;;;;;8.22;100.00;99887.88;4979260;28;20189;-46
2023/03/23 03:54:21;;;;;;;8.02;6.88;;;;;;;8.18;100.00;99894.28;4961403;28;20896;-47
2023/03/23 03:56:47;;;;;;;8.68;7.00;;;;;;;8.15;100.00;99894.38;4977685;28;20240;-49
2023/03/23 03:59:32;;;;;;;7.13;6.28;;;;;;;8.17;100.00;99897.84;4980059;28;20261;-47
2023/03/23 04:02:24;;;;;;;7.35;6.00;;;;;;;8.08;100.00;99897.41;4951536;28;20410;-49
2023/03/23 04:04:54;;;;;;;7.90;5.93;;;;;;;8.04;100.00;99888.66;4981098;28;20205;-49
2023/03/23 04:07:21;;;;;;;7.22;5.25;;;;;;;7.96;100.00;99877.44;4963212;28;20180;-48
2023/03/23 04:09:47;;;;;;;8.02;5.65;;;;;;;8.00;100.00;99876.38;4978093;28;20193;-47
2023/03/23 04:12:15;;;;;;;6.90;5.25;;;;;;;7.98;100.00;99879.13;4963243;28;20197;-48
2023/03/23 04:14:56;;;;;;;5.88;4.10;;;;;;;8.00;100.00;99866.59;4977708;28;20489;-48
2023/03/23 04:17:27;;;;;;;5.78;4.75;;;;;;;7.84;100.00;99847.69;4979436;28;20681;-48
2023/03/23 04:19:58;;;;;;;9.15;4.70;;;;;;;7.87;100.00;99844.06;4979206;28;20193;-46
2023/03/23 04:22:29;;;;;;;6.38;4.80;;;;;;;7.82;100.00;99838.91;4978074;28;20269;-47
2023/03/23 04:25:06;;;;;;;6.40;4.88;;;;;;;7.79;100.00;99831.03;4961512;28;20300;-48
2023/03/23 04:27:35;;;;;;;7.70;4.93;;;;;;;7.79;100.00;99824.84;4962924;28;20599;-48
2023/03/23 04:30:04;;;;;;;5.25;4.63;;;;;;;7.76;100.00;99822.28;4961193;28;20216;-47
2023/03/23 04:32:40;;;;;;;6.47;4.30;;;;;;;7.79;100.00;99839.03;4978199;28;20176;-48
2023/03/23 04:35:06;;;;;;;4.20;3.80;;;;;;;7.77;100.00;99834.72;4981534;28;20292;-46
2023/03/23 04:37:39;;;;;;;5.53;3.65;;;;;;;7.72;100.00;99826.91;4955814;28;20667;-47
2023/03/23 04:40:10;;;;;;;4.97;3.55;;;;;;;7.71;100.00;99824.31;4979138;28;20194;-45
2023/03/23 04:42:37;;;;;;;4.00;3.58;;;;;;;7.68;100.00;99825.31;4976222;28;20687;-45
2023/03/23 04:45:28;;;;;;;4.35;3.25;;;;;;;7.66;100.00;99821.84;4972217;28;20213;-46
2023/03/23 04:47:57;;;;;;;3.17;2.88;;;;;;;7.64;100.00;99811.22;4961122;28;20636;-46
2023/03/23 04:50:30;;;;;;;5.07;3.45;;;;;;;7.61;100.00;99808.69;4959807;28;20166;-46
2023/03/23 04:53:04;;;;;;;3.80;2.90;;;;;;;7.62;100.00;99806.91;4982026;28;20185;-46
2023/03/23 04:55:35;;;;;;;3.70;2.78;;;;;;;7.60;100.00;99793.63;4960862;28;20243;-47
2023/03/23 04:58:07;;;;;;;3.03;2.63;;;;;;;7.58;100.00;99802.63;4973126;28;20173;-46
2023/03/23 05:00:38;;;;;;;3.35;2.15;;;;;;;7.60;100.00;99801.63;4979489;28;20705;-46
2023/03/23 05:03:07;;;;;;;2.38;1.95;;;;;;;7.55;100.00;99798.28;4963454;28;20530;-45
2023/03/23 05:05:34;;;;;;;1.70;1.60;;;;;;;7.54;100.00;99806.34;4964015;28;20209;-45
2023/03/23 05:08:05;;;;;;;1.45;1.35;;;;;;;7.53;100.00;99791.31;4976674;28;20200;-46
2023/03/23 05:10:33;;;;;;;1.90;1.50;;;;;;;7.54;100.00;99790.34;4960531;28;20177;-45
2023/03/23 05:13:05;;;;;;;1.77;1.30;;;;;;;7.53;100.00;99786.84;4962086;28;20207;-44
2023/03/23 05:15:30;;;;;;;3.67;1.20;;;;;;;7.50;100.00;99794.97;4979202;28;20206;-43
2023/03/23 05:17:57;;;;;;;1.40;1.30;;;;;;;7.57;100.00;99804.44;4960593;28;20563;-43
2023/03/23 05:20:24;;;;;;;1.52;1.42;;;;;;;7.54;100.00;99791.25;4977888;28;20193;-43
2023/03/23 05:22:53;;;;;;;2.35;1.92;;;;;;;7.56;100.00;99792.00;4969431;28;20274;-43
2023/03/23 05:25:27;;;;;;;2.95;2.65;;;;;;;7.61;100.00;99782.03;4976648;28;20576;-42
2023/03/23 05:28:00;;;;;;;2.63;2.40;;;;;;;7.62;100.00;99785.56;4958795;28;20198;-42
2023/03/23 05:30:44;;;;;;;3.20;2.67;;;;;;;7.67;100.00;99790.69;4975791;28;20573;-44
2023/03/23 05:33:10;;;;;;;5.32;3.70;;;;;;;7.69;100.00;99788.84;4960325;28;20644;-44
2023/03/23 05:35:49;;;;;;;6.53;5.20;;;;;;;7.72;100.00;99781.59;4975585;28;20551;-45
2023/03/23 05:38:18;;;;;;;8.43;5.63;;;;;;;7.81;100.00;99786.50;4960942;28;20200;-44
2023/03/23 05:40:45;;;;;;;9.82;7.75;;;;;;;7.90;100.00;99787.06;4962576;28;20530;-42
2023/03/23 05:43:16;;;;;;;9.60;8.68;;;;;;;7.92;100.00;99793.19;4959735;28;20654;-44
2023/03/23 05:45:52;;;;;;;11.70;9.13;;;;;;;7.97;100.00;99784.03;4960963;28;20593;-45
2023/03/23 05:48:17;;;;;;;10.35;9.35;;;;;;;8.03;100.00;99782.91;4983009;28;20181;-43
2023/03/23 05:50:44;;;;;;;13.13;11.77;;;;;;;8.10;100.00;99783.50;4966911;28;20291;-48
2023/03/23 05:53:10;;;;;;;13.57;12.15;;;;;;;8.13;100.00;99786.88;4968025;28;20264;-46
2023/03/23 05:55:38;;;;;;;15.43;13.73;;;;;;;8.17;100.00;99784.94;4946529;28;20581;-48
2023/03/23 05:58:17;;;;;;;15.32;13.85;;;;;;;8.22;100.00;99773.13;4963712;28;20356;-47
2023/03/23 06:00:46;;;;;;;17.90;16.02;;;;;;;8.25;100.00;99773.00;4970348;28;20212;-46
2023/03/23 06:03:19;;;;;;;19.70;17.70;;;;;;;8.32;100.00;99778.06;4965174;28;20211;-45
2023/03/23 06:06:05;;;;;;;18.98;17.08;;;;;;;8.37;100.00;99770.69;4982304;28;20699;-47
2023/03/23 06:08:38;;;;;;;20.88;18.73;;;;;;;8.40;100.00;99767.91;4969331;28;20221;-46
2023/03/23 06:11:04;;;;;;;22.13;19.88;;;;;;;8.47;100.00;99756.03;4968311;28;20189;-45
2023/03/23 06:13:33;;;;;;;25.10;20.42;;;;;;;8.57;100.00;99749.31;4980068;28;20169;-47
2023/03/23 06:16:05;;;;;;;27.17;22.33;;;;;;;8.73;100.00;99745.91;4960810;28;20249;-46
2023/03/23 06:18:46;;;;;;;25.20;22.38;;;;;;;8.81;100.00;99762.41;4981021;28;20228;-46
2023/03/23 06:21:21;;;;;;;27.77;24.05;;;;;;;8.96;100.00;99763.47;4974128;28;20196;-47
2023/03/23 06:24:16;;;;;;;26.40;23.38;;;;;;;9.11;100.00;99753.84;4941677;28;20231;-46
2023/03/23 06:26:43;;;;;;;29.58;23.23;;;;;;;9.18;100.00;99758.84;4970888;28;20178;-42
2023/03/23 06:29:14;;;;;;;24.60;22.10;;;;;;;9.19;100.00;99760.56;4962107;28;20202;-43
2023/03/23 06:31:47;;;;;;;25.50;22.88;;;;;;;9.36;100.00;99757.03;4969912;28;20691;-44
2023/03/23 06:34:14;;;;;;;25.20;22.13;;;;;;;9.57;100.00;99754.22;4980841;28;20188;-47
2023/03/23 06:36:58;;;;;;;26.10;22.45;;;;;;;9.83;100.00;99763.56;4981054;28;20185;-46
2023/03/23 06:39:44;;;;;;;23.40;21.10;;;;;;;9.90;100.00;99755.16;4982136;28;20205;-46
2023/03/23 06:42:24;;;;;;;23.38;21.00;;;;;;;9.96;100.00;99750.41;4951387;28;20177;-46
2023/03/23 06:45:04;;;;;;;21.58;19.40;;;;;;;9.77;100.00;99737.13;4961538;28;20723;-46
2023/03/23 06:47:30;;;;;;;20.65;18.52;;;;;;;9.87;100.00;99754.44;4979360;28;20185;-48
2023/03/23 06:49:57;;;;;;;20.15;18.15;;;;;;;10.26;100.00;99748.75;4964876;28;20186;-47
2023/03/23 06:52:26;;;;;;;18.10;16.17;;;;;;;10.15;100.00;99744.94;4980595;28;20182;-46
2023/03/23 06:54:53;;;;;;;20.00;17.67;;;;;;;10.10;100.00;99743.38;4963245;28;20292;-47
2023/03/23 06:57:20;;;;;;;17.73;15.93;;;;;;;10.04;100.00;99745.50;4976245;28;20189;-46
2023/03/23 06:59:47;;;;;;;18.38;16.33;;;;;;;9.91;100.00;99731.91;4963859;28;20181;-47
2023/03/23 07:02:14;;;;;;;17.88;16.05;;;;;;;9.87;100.00;99747.25;4964610;28;20188;-46
2023/03/23 07:04:41;;;;;;;20.98;16.23;;;;;;;9.83;100.00;99744.84;4970444;28;20221;-46
2023/03/23 07:07:18;;;;;;;17.88;16.05;;;;;;;9.80;100.00;99751.22;4964534;28;20177;-44
2023/03/23 07:10:09;;;;;;;18.52;16.23;;;;;;;9.76;100.00;99738.94;4963430;28;20194;-46
2023/03/23 07:12:35;;;;;;;17.90;15.68;;;;;;;9.72;100.00;99753.41;4963492;28;20247;-44
2023/03/23 07:15:05;;;;;;;18.05;15.88;;;;;;;9.65;100.00;99750.19;4980119;28;20295;-43
2023/03/23 07:17:31;;;;;;;15.48;13.98;;;;;;;9.59;100.00;99760.34;4961101;28;20676;-44
2023/03/23 07:20:20;;;;;;;14.95;13.40;;;;;;;9.55;100.00;99751.59;4980961;28;20190;-45
2023/03/23 07:22:46;;;;;;;15.27;13.80;;;;;;;9.57;100.00;99738.16;4964728;28;20721;-43
2023/03/23 07:25:35;;;;;;;13.73;12.05;;;;;;;9.54;100.00;99762.41;4981283;28;20308;-45
2023/03/23 07:28:02;;;;;;;15.80;12.23;;;;;;;9.60;100.00;99738.00;4974338;28;20193;-43
2023/03/23 07:30:29;;;;;;;13.77;10.88;;;;;;;9.59;100.00;99733.59;4962332;28;20201;-42
2023/03/23 07:32:58;;;;;;;16.88;12.30;;;;;;;9.57;100.00;99728.31;4981555;28;20181;-42
2023/03/23 07:35:25;;;;;;;13.15;11.95;;;;;;;9.60;100.00;99738.00;4956025;28;20247;-43
2023/03/23 07:38:06;;;;;;;14.18;12.68;;;;;;;9.58;100.00;99737.22;4981751;28;20216;-43
2023/03/23 07:40:33;;;;;;;13.52;12.23;;;;;;;9.60;100.00;99749.56;4981588;28;20169;-43
2023/03/23 07:43:04;;;;;;;13.75;12.05;;;;;;;9.54;100.00;99751.69;4975707;28;20337;-45
2023/03/23 07:46:09;;;;;;;14.07;12.20;;;;;;;9.52;100.00;99737.53;4964310;28;20308;-43
2023/03/23 07:48:44;;;;;;;11.32;10.23;;;;;;;9.66;100.00;99751.06;4972973;28;20259;-45
2023/03/23 07:51:10;;;;;;;11.30;10.15;;;;;;;9.66;100.00;99754.63;4981980;28;20236;-44
2023/03/23 07:53:37;;;;;;;10.45;9.45;;;;;;;9.59;100.00;99752.31;4960351;28;20204;-44
2023/03/23 07:56:19;;;;;;;8.50;7.05;;;;;;;9.62;100.00;99765.53;4977371;28;20236;-44
2023/03/23 07:59:04;;;;;;;8.00;7.22;;;;;;;9.63;100.00;99748.56;4957806;28;20595;-43
2023/03/23 08:01:30;;;;;;;7.93;6.50;;;;;;;9.72;100.00;99748.06;4959073;28;20272;-41
2023/03/23 08:04:15;;;;;;;8.98;6.70;;;;;;;9.83;100.00;99759.06;4976742;28;20291;-44
2023/03/23 08:06:59;;;;;;;7.15;5.57;;;;;;;9.90;100.00;99752.47;4980926;28;20197;-43
2023/03/23 08:10:00;;;;;;;8.90;5.68;;;;;;;10.16;100.00;99752.88;4935155;29;20496;-44
2023/03/23 08:12:31;;;;;;;7.20;4.40;;;;;;;10.29;100.00;99756.63;4971153;28;20242;-42
2023/03/23 08:15:18;;;;;;;9.48;4.28;;;;;;;10.50;100.00;99768.00;4977401;28;20319;-43
2023/03/23 08:18:07;;;;;;;6.22;4.10;;;;;;;10.72;100.00;99759.63;4973998;28;20202;-42
2023/03/23 08:20:53;;;;;;;6.13;3.42;;;;;;;10.87;100.00;99752.56;4974725;28;20204;-46
2023/03/23 08:23:28;;;;;;;9.00;3.70;;;;;;;10.80;100.00;99745.81;4954660;28;20197;-43
2023/03/23 08:26:09;;;;;;;8.45;3.60;;;;;;;10.65;100.00;99746.69;4972475;28;20263;-43
2023/03/23 08:28:50;;;;;;;6.40;3.50;;;;;;;10.47;100.00;99765.50;4970758;28;20200;-45
2023/03/23 08:31:39;;;;;;;8.70;3.15;;;;;;;10.45;100.00;99758.47;4954507;28;20162;-46
2023/03/23 08:34:21;;;;;;;6.70;2.65;;;;;;;10.38;100.00;99767.81;4954453;28;20198;-44
2023/03/23 08:37:04;;;;;;;5.28;2.60;;;;;;;10.22;100.00;99760.56;4954719;28;20155;-44
2023/03/23 08:39:30;;;;;;;7.50;2.70;;;;;;;10.22;100.00;99770.41;4972159;28;20201;-44
2023/03/23 08:42:07;;;;;;;10.15;2.60;;;;;;;10.11;100.00;99771.84;4954154;28;20658;-48
2023/03/23 08:44:53;;;;;;;8.52;2.40;;;;;;;10.03;100.00;99776.75;4957047;28;20218;-44
2023/03/23 08:47:38;;;;;;;7.60;2.20;;;;;;;10.08;100.00;99776.53;4971945;28;20213;-49
2023/03/23 08:50:30;;;;;;;8.95;3.10;;;;;;;10.09;100.00;99772.88;4954101;28;20170;-43
2023/03/23 08:53:15;;;;;;;7.35;2.70;;;;;;;10.16;100.00;99774.28;4971690;28;20542;-43
2023/03/23 08:55:41;;;;;;;9.23;2.70;;;;;;;10.18;100.00;99780.41;4954248;28;20218;-43
2023/03/23 08:58:23;;;;;;;7.63;2.50;;;;;;;10.59;100.00;99765.78;4971798;28;20177;-46
2023/03/23 09:00:59;;;;;;;9.88;2.72;;;;;;;10.83;100.00;99775.13;4953873;28;20189;-43
2023/03/23 09:03:40;;;;;;;12.52;2.10;;;;;;;10.77;100.00;99774.59;4971408;28;20551;-44
2023/03/23 09:06:22;;;;;;;8.80;2.17;;;;;;;10.82;100.00;99762.69;4970046;28;20189;-43
2023/03/23 09:08:48;;;;;;;8.98;2.80;;;;;;;10.75;100.00;99768.47;4971644;28;20651;-44
2023/03/23 09:11:13;;;;;;;11.18;2.30;;;;;;;10.99;100.00;99766.22;4971518;28;20550;-43
2023/03/23 09:13:40;;;;;;;9.68;2.25;;;;;;;11.25;100.00;99762.03;4971283;28;20197;-42
2023/03/23 09:16:06;;;;;;;11.65;2.50;;;;;;;11.45;100.00;99764.38;4971362;28;20186;-44
2023/03/23 09:18:34;;;;;;;11.70;2.30;;;;;;;11.31;100.00;99759.84;4971395;28;20595;-43
2023/03/23 09:21:01;;;;;;;8.38;2.33;;;;;;;11.09;100.00;99756.69;4971517;28;20189;-43
2023/03/23 09:23:27;;;;;;;8.68;1.98;;;;;;;10.95;100.00;99761.97;4970929;28;20193;-43
2023/03/23 09:25:53;;;;;;;10.52;2.72;;;;;;;11.48;100.00;99764.22;4971394;28;20204;-42
2023/03/23 09:28:19;;;;;;;7.65;2.35;;;;;;;11.90;100.00;99762.63;5030050;23;20599;-44
2023/03/23 09:30:45;;;;;;;10.68;2.45;;;;;;;12.00;100.00;99751.31;5024673;28;20263;-42
2023/03/23 09:33:11;;;;;;;11.23;2.85;;;;;;;11.90;100.00;99765.31;5032416;28;20207;-42
2023/03/23 09:35:38;;;;;;;11.07;2.15;;;;;;;11.59;100.00;99755.53;5032384;28;20231;-42
2023/03/23 09:38:05;;;;;;;6.72;1.80;;;;;;;11.67;100.00;99765.81;5034766;28;20254;-41
2023/03/23 09:40:50;;;;;;;9.98;2.20;;;;;;;11.32;100.00;99761.56;5033757;28;20206;-43
2023/03/23 09:43:33;;;;;;;7.80;1.92;;;;;;;11.11;100.00;99774.41;5035822;28;20183;-44
2023/03/23 09:46:32;;;;;;;10.90;2.50;;;;;;;11.25;100.00;99778.13;5028679;28;20212;-44
2023/03/23 09:49:01;;;;;;;12.68;2.00;;;;;;;11.17;100.00;99791.94;5015156;28;20482;-42
2023/03/23 09:51:34;;;;;;;10.00;2.65;;;;;;;11.64;100.00;99785.63;5033523;28;20568;-41
2023/03/23 09:54:09;;;;;;;9.43;2.13;;;;;;;11.54;99.41;99766.56;5035098;28;20195;-44
2023/03/23 09:56:36;;;;;;;14.23;2.90;;;;;;;11.99;97.38;99782.69;5032066;28;20207;-41
2023/03/23 09:59:21;;;;;;;8.25;2.60;;;;;;;11.77;96.02;99788.47;5036324;28;20187;-41
2023/03/23 10:02:26;;;;;;;8.95;2.83;;;;;;;11.72;94.37;99791.41;5032043;28;20195;-44
2023/03/23 10:04:55;;;;;;;15.80;3.28;;;;;;;11.83;92.58;99780.03;5033247;28;20223;-46
2023/03/23 10:07:25;;;;;;;8.63;2.20;;;;;;;12.36;91.58;99783.09;5031302;28;20202;-45
2023/03/23 10:10:03;;;;;;;10.38;2.90;;;;;;;12.48;89.62;99776.94;5033626;28;20676;-48
2023/03/23 10:13:06;;;;;;;12.23;2.33;;;;;;;12.82;87.10;99765.88;5036119;28;20276;-45
2023/03/23 10:15:38;;;;;;;9.25;2.65;;;;;;;12.91;84.67;99759.91;5002335;28;20219;-46
2023/03/23 10:18:17;;;;;;;13.38;2.58;;;;;;;12.73;83.59;99760.13;5033924;28;20922;-47
2023/03/23 10:20:59;;;;;;;11.25;2.70;;;;;;;12.45;82.42;99769.09;5034740;28;20603;-47
2023/03/23 10:23:33;;;;;;;11.52;2.38;;;;;;;12.44;81.88;99774.56;5035517;28;20196;-43
2023/03/23 10:26:15;;;;;;;7.13;2.17;;;;;;;12.54;80.57;99768.50;5031263;28;20547;-46
2023/03/23 10:28:44;;;;;;;10.80;2.50;;;;;;;12.67;79.90;99767.72;5034219;28;20278;-47
2023/03/23 10:31:34;;;;;;;13.32;2.70;;;;;;;12.82;79.40;99757.81;5036071;28;20195;-47
2023/03/23 10:34:08;;;;;;;11.23;3.05;;;;;;;12.67;78.26;99754.28;5032255;28;20215;-45
2023/03/23 10:37:11;;;;;;;11.25;3.03;;;;;;;12.85;77.99;99760.31;5037616;28;20168;-46
2023/03/23 10:39:45;;;;;;;12.10;2.95;;;;;;;12.97;77.81;99771.13;5017911;28;20204;-47
2023/03/23 10:42:11;;;;;;;10.15;2.95;;;;;;;13.17;76.97;99766.28;5034747;28;20178;-47
2023/03/23 10:44:37;;;;;;;13.30;2.50;;;;;;;13.06;77.03;99768.81;5035276;28;20207;-45
2023/03/23 10:47:06;;;;;;;13.38;2.70;;;;;;;12.95;77.48;99772.19;5037035;28;20171;-42
2023/03/23 10:49:47;;;;;;;10.00;2.30;;;;;;;12.43;76.52;99776.38;5039209;28;20843;-41
2023/03/23 10:52:50;;;;;;;11.95;2.78;;;;;;;12.25;76.05;99777.53;5033845;28;20226;-43
2023/03/23 10:55:22;;;;;;;7.93;2.38;;;;;;;11.45;76.61;99771.59;4976423;28;20224;-42
2023/03/23 10:58:24;;;;;;;11.55;2.30;;;;;;;11.40;77.63;99774.53;5025224;28;20208;-41
2023/03/23 11:00:50;;;;;;;10.93;2.28;;;;;;;11.31;78.33;99799.22;5023966;28;20226;-42
2023/03/23 11:03:17;;;;;;;11.35;2.53;;;;;;;11.20;78.79;99807.00;5034557;28;20658;-43
2023/03/23 11:05:52;;;;;;;12.40;2.40;;;;;;;11.13;78.84;99810.03;5036925;28;20219;-44
2023/03/23 11:08:33;;;;;;;9.10;2.22;;;;;;;11.40;79.03;99805.88;5039485;28;20191;-43
2023/03/23 11:11:32;;;;;;;12.00;2.50;;;;;;;11.28;78.43;99818.16;5033696;28;20236;-43
2023/03/23 11:14:14;;;;;;;10.00;2.47;;;;;;;11.37;78.03;99816.75;5021270;28;20436;-44
2023/03/23 11:16:46;;;;;;;8.98;2.55;;;;;;;11.49;77.69;99805.31;5040288;28;20183;-43
2023/03/23 11:19:20;;;;;;;11.65;2.30;;;;;;;11.27;77.68;99806.56;5018527;28;20558;-44
2023/03/23 11:21:53;;;;;;;9.68;2.03;;;;;;;11.45;77.55;99817.19;5033483;28;20188;-39
2023/03/23 11:24:22;;;;;;;8.45;1.92;;;;;;;11.25;77.49;99812.97;5041060;28;20191;-41
2023/03/23 11:26:48;;;;;;;9.82;2.22;;;;;;;11.29;77.39;99806.47;5035450;28;20194;-41
2023/03/23 11:29:17;;;;;;;13.85;2.25;;;;;;;11.20;77.59;99804.34;5039368;28;20183;-44
2023/03/23 11:31:52;;;;;;;9.15;2.20;;;;;;;11.26;77.93;99817.38;5036958;28;20171;-40
2023/03/23 11:34:29;;;;;;;11.38;2.60;;;;;;;11.33;77.85;99821.44;5036756;28;20195;-43
2023/03/23 11:37:01;;;;;;;10.73;2.08;;;;;;;11.54;78.13;99838.97;5038593;28;20266;-44
2023/03/23 11:39:28;;;;;;;10.68;2.10;;;;;;;11.42;77.79;99820.91;5039662;28;20211;-41
2023/03/23 11:41:56;;;;;;;6.88;2.03;;;;;;;11.33;78.03;99835.72;5035152;28;20179;-42
2023/03/23 11:44:23;;;;;;;9.63;2.30;;;;;;;11.10;78.27;99836.16;5036381;28;20208;-41
2023/03/23 11:46:58;;;;;;;15.70;2.92;;;;;;;11.05;78.19;99847.13;5035564;28;20240;-42
2023/03/23 11:49:42;;;;;;;13.10;2.67;;;;;;;10.95;78.37;99847.72;5032962;28;20192;-43
2023/03/23 11:52:39;;;;;;;11.60;2.63;;;;;;;11.26;78.19;99853.13;5025553;28;20184;-42
2023/03/23 11:55:13;;;;;;;14.63;3.35;;;;;;;11.68;78.44;99853.41;5032904;28;20914;-43